This demonstration page uses our WeatherBlox Daily Observations layout. Learn more.

Left ArrowRight Arrow

39.92423, -83.80882

Hourly Observations for September 17, 2015

Temp ( °F °C ) Dew Point ( °F °C ) Humidity (%) Winds ( mph kmh ) Pressure ( in mb ) Visibility ( mi km ) Precip ( " mm )
12:56 am 00:56 Clear 55 12.7 53 11.6 93 93 ESE 3 6 30.21 1023 10 16.0934 0 0
1:56 am 01:56 Clear 54 12.2 52 11.1 93 93 E 5 7 30.2 1023 10 16.0934 0 0
2:56 am 02:56 Clear 53 11.6 52 11.1 97 97 E 5 7 30.2 1023 10 16.0934 0 0
3:56 am 03:56 Clear 53 11.6 51 10.5 93 93 Calm 30.2 1023 10 16.0934 0 0
4:56 am 04:56 Clear 52 11.1 51 10.5 96 96 Calm 30.19 1023 10 16.0934 0 0
5:56 am 05:56 Clear 51 10.5 50 10 97 97 ESE 3 6 30.2 1023 10 16.0934 0 0
6:56 am 06:56 Clear 51 10.5 50 10 97 97 E 3 6 30.2 1023 10 16.0934 0 0
7:56 am 07:56 Sunny 52 11.1 51 10.5 96 96 Calm 30.22 1023 10 16.0934 0 0
8:56 am 08:56 Mostly Cloudy 60 15.5 58 14.4 93 93 Calm 30.22 1023 10 16.0934 0 0
9:56 am 09:56 Sunny 69 20.5 59 15 71 71 SSW 5 7 30.21 1023 10 16.0934 0 0
10:56 am 10:56 Sunny 75 23.8 56 13.3 52 52 VRB 5 7 30.19 1023 10 16.0934 0 0
11:56 am 11:56 Sunny 79 26.1 55 12.7 43 43 SW 7 11 30.18 1022 10 16.0934 0 0
12:56 pm 12:56 Sunny 80 26.6 56 13.3 44 44 SSW 8 13 30.16 1021 10 16.0934 0 0
1:56 pm 13:56 Sunny 81 27.2 56 13.3 42 42 SSW 5 7 30.14 1021 10 16.0934 0 0
2:56 pm 14:56 Sunny 82 27.7 56 13.3 41 41 VRB 7 11 30.11 1020 10 16.0934 0 0
3:56 pm 15:56 Sunny 82 27.7 57 13.8 42 42 VRB 7 11 30.09 1019 10 16.0934 0 0
4:56 pm 16:56 Sunny 83 28.3 57 13.8 41 41 SSW 7 11 30.08 1019 10 16.0934 0 0
5:56 pm 17:56 Sunny 82 27.7 57 13.8 42 42 WSW 9 15 30.07 1018 10 16.0934 0 0
6:56 pm 18:56 Sunny 79 26.1 57 13.8 47 47 WSW 5 7 30.06 1018 10 16.0934 0 0
7:56 pm 19:56 Clear 69 20.5 58 14.4 68 68 SSW 5 7 30.05 1018 10 16.0934 0 0
8:56 pm 20:56 Clear 66 18.8 58 14.4 76 76 SW 5 7 30.06 1018 10 16.0934 0 0
9:56 pm 21:56 Clear 60 15.5 57 13.8 90 90 SSE 3 6 30.05 1018 10 16.0934 0 0
10:56 pm 22:56 Clear 62 16.6 57 13.8 84 84 SSE 6 9 30.04 1017 10 16.0934 0 0
11:56 pm 23:56 Clear 63 17.2 57 13.8 81 81 SSW 3 6 30.04 1017 10 16.0934 0 0

Powered by AerisWeather